Time;durP1;ratioP1;P1;durP2;ratioP2;P2;SDS_P1;SDS_P2;PMS_P1;PMS_P2;Temp;Humidity;BMP_temperature;BMP_pressure;BME280_temperature;BME280_humidity;BME280_pressure;Samples;Min_cycle;Max_cycle;Signal;HPM_P1;HPM_P2
2021/05/22 00:00:53;;;;;;;3.10;1.88;;;;;;;4.50;100.00;92444.16;2098746;28;20024;-88
2021/05/22 00:01:53;;;;;;;1.95;0.85;;;;;;;4.59;100.00;92449.00;2098580;28;20024;-85
2021/05/22 00:02:54;;;;;;;3.08;1.00;;;;;;;4.58;100.00;92455.44;2098852;28;20040;-87
2021/05/22 00:03:55;;;;;;;3.33;1.17;;;;;;;4.47;100.00;92446.84;2106962;28;20051;-86
2021/05/22 00:04:56;;;;;;;1.90;1.00;;;;;;;4.53;100.00;92435.44;2082124;28;20049;-87
2021/05/22 00:05:57;;;;;;;4.03;1.00;;;;;;;4.43;100.00;92443.47;2104631;28;20028;-87
2021/05/22 00:06:58;;;;;;;1.25;0.90;;;;;;;4.45;100.00;92438.56;2090474;28;20036;-87
2021/05/22 00:07:58;;;;;;;3.25;1.00;;;;;;;4.44;100.00;92437.81;2090374;28;20482;-87
2021/05/22 00:08:59;;;;;;;1.27;0.80;;;;;;;4.46;100.00;92443.44;2098641;28;20056;-88
2021/05/22 00:10:01;;;;;;;3.97;1.15;;;;;;;4.48;100.00;92448.38;2098594;28;20047;-87
2021/05/22 00:11:02;;;;;;;3.80;0.93;;;;;;;4.63;100.00;92441.78;2098742;28;20021;-88
2021/05/22 00:12:04;;;;;;;1.63;1.00;;;;;;;4.68;100.00;92443.97;2096597;28;20480;-87
2021/05/22 00:13:05;;;;;;;2.22;0.93;;;;;;;4.62;100.00;92458.81;2089856;28;20025;-87
2021/05/22 00:14:05;;;;;;;4.20;1.20;;;;;;;4.57;100.00;92440.72;2098366;28;20107;-87
2021/05/22 00:15:08;;;;;;;3.75;1.08;;;;;;;4.56;100.00;92441.84;2107606;28;20050;-87
2021/05/22 00:16:09;;;;;;;1.35;0.82;;;;;;;4.65;100.00;92438.72;2107680;28;20069;-88
2021/05/22 00:17:09;;;;;;;2.13;1.10;;;;;;;4.61;100.00;92443.31;2099080;28;20512;-86
2021/05/22 00:18:10;;;;;;;2.17;1.08;;;;;;;4.59;100.00;92450.91;2090697;28;20025;-87
2021/05/22 00:19:11;;;;;;;2.45;1.10;;;;;;;4.61;100.00;92448.59;2096506;28;20111;-87
2021/05/22 00:20:13;;;;;;;2.58;1.10;;;;;;;4.61;100.00;92448.59;2091641;28;20021;-87
2021/05/22 00:21:14;;;;;;;2.13;0.90;;;;;;;4.66;100.00;92448.94;2107219;28;20016;-85
2021/05/22 00:22:14;;;;;;;1.25;1.15;;;;;;;4.83;100.00;92449.91;2082251;28;20028;-87
2021/05/22 00:23:16;;;;;;;1.45;1.00;;;;;;;4.82;100.00;92445.72;2082196;28;20036;-87
2021/05/22 00:24:16;;;;;;;5.22;1.20;;;;;;;4.80;100.00;92448.03;2074032;28;20086;-85
2021/05/22 00:25:17;;;;;;;3.42;1.00;;;;;;;4.77;100.00;92446.16;2073908;28;20041;-88
2021/05/22 00:26:18;;;;;;;1.58;0.90;;;;;;;4.78;100.00;92447.66;2082219;28;20100;-87
2021/05/22 00:27:18;;;;;;;2.92;1.25;;;;;;;4.73;100.00;92437.50;2085688;28;20466;-87
2021/05/22 00:28:19;;;;;;;1.83;1.00;;;;;;;4.83;100.00;92435.88;2082572;28;20025;-87
2021/05/22 00:29:20;;;;;;;2.28;1.10;;;;;;;4.80;100.00;92434.78;2090317;28;20494;-86
2021/05/22 00:30:22;;;;;;;1.75;1.08;;;;;;;4.72;100.00;92425.41;2098702;28;20377;-87
2021/05/22 00:31:22;;;;;;;1.92;1.02;;;;;;;4.72;100.00;92425.41;2098405;28;20131;-88
2021/05/22 00:32:23;;;;;;;2.10;1.10;;;;;;;4.78;100.00;92419.31;2098623;28;20028;-88
2021/05/22 00:33:24;;;;;;;3.38;0.90;;;;;;;4.81;100.00;92423.03;2090275;28;20387;-88
2021/05/22 00:34:24;;;;;;;1.90;1.00;;;;;;;4.81;100.00;92423.03;2098545;28;20020;-87
2021/05/22 00:35:25;;;;;;;3.00;1.10;;;;;;;4.74;100.00;92423.13;2106748;28;20034;-87
2021/05/22 00:36:26;;;;;;;4.55;1.20;;;;;;;4.72;100.00;92431.47;2092202;28;20021;-87
2021/05/22 00:37:27;;;;;;;3.20;1.13;;;;;;;4.82;100.00;92423.78;2092646;28;20024;-86
2021/05/22 00:38:27;;;;;;;1.52;0.85;;;;;;;4.99;100.00;92428.88;2098302;28;20103;-87
2021/05/22 00:39:28;;;;;;;3.10;1.10;;;;;;;4.93;100.00;92435.03;2090282;28;20118;-86
2021/05/22 00:40:29;;;;;;;2.95;1.25;;;;;;;4.85;100.00;92429.06;2098529;28;20032;-88
2021/05/22 00:41:30;;;;;;;5.05;1.45;;;;;;;4.99;100.00;92428.88;2098539;28;20077;-86
2021/05/22 00:42:33;;;;;;;5.68;1.20;;;;;;;4.96;100.00;92431.56;2098450;28;20024;-88
2021/05/22 00:43:34;;;;;;;5.03;1.10;;;;;;;4.90;100.00;92431.25;2099126;28;20028;-86
2021/05/22 00:44:55;;;;;;;3.83;1.60;;;;;;;4.92;100.00;92436.19;2106395;28;20095;-87
2021/05/22 00:45:56;;;;;;;7.18;1.30;;;;;;;4.84;100.00;92429.47;2100695;28;20496;-88
2021/05/22 00:46:58;;;;;;;5.32;1.50;;;;;;;4.87;100.00;92418.81;2098401;28;20016;-87
2021/05/22 00:47:59;;;;;;;4.32;1.23;;;;;;;4.88;100.00;92425.63;2106904;28;20031;-87
2021/05/22 00:49:00;;;;;;;4.55;1.30;;;;;;;4.67;100.00;92426.59;2098207;28;20071;-86
2021/05/22 00:50:00;;;;;;;6.70;1.50;;;;;;;4.70;100.00;92412.59;2081661;28;20382;-86
2021/05/22 00:51:02;;;;;;;4.78;1.48;;;;;;;4.94;100.00;92410.03;2089952;28;20021;-85
2021/05/22 00:52:03;;;;;;;4.03;1.30;;;;;;;4.94;100.00;92424.03;2098418;28;20032;-85
2021/05/22 00:53:06;;;;;;;3.42;1.35;;;;;;;4.98;100.00;92419.44;2098284;28;20070;-87
2021/05/22 00:54:07;;;;;;;4.03;1.45;;;;;;;4.94;100.00;92415.34;2090372;28;20081;-88
2021/05/22 00:55:08;;;;;;;7.28;1.17;;;;;;;4.99;100.00;92423.59;2098237;28;20062;-86
2021/05/22 00:56:09;;;;;;;5.38;1.50;;;;;;;4.96;100.00;92416.44;2089967;28;20112;-87
2021/05/22 00:57:09;;;;;;;7.07;1.45;;;;;;;4.93;100.00;92430.47;2098188;28;20024;-88
2021/05/22 00:58:11;;;;;;;4.82;1.30;;;;;;;4.72;100.00;92426.16;2098344;28;20040;-85
2021/05/22 00:59:15;;;;;;;3.70;1.38;;;;;;;4.76;100.00;92415.53;2106457;28;20462;-87
2021/05/22 01:00:18;;;;;;;4.82;1.27;;;;;;;4.83;100.00;92402.25;2090874;28;20032;-87
2021/05/22 01:01:19;;;;;;;3.00;1.30;;;;;;;4.90;100.00;92396.84;2098617;28;20020;-85
2021/05/22 01:02:25;;;;;;;3.05;1.30;;;;;;;4.96;100.00;92386.53;2098165;28;20524;-86
2021/05/22 01:03:31;;;;;;;4.43;1.35;;;;;;;4.94;100.00;92379.00;2099260;28;20105;-86
2021/05/22 01:04:31;;;;;;;4.57;1.20;;;;;;;5.01;100.00;92402.03;2107437;28;20039;-87
2021/05/22 01:05:32;;;;;;;1.60;1.20;;;;;;;5.02;100.00;92393.66;2106512;28;20020;-86
2021/05/22 01:06:34;;;;;;;3.63;1.38;;;;;;;4.97;100.00;92412.66;2114947;28;20027;-87
2021/05/22 01:07:34;;;;;;;5.93;1.45;;;;;;;4.94;100.00;92416.09;2114898;28;20408;-86
2021/05/22 01:08:37;;;;;;;4.65;1.27;;;;;;;4.94;100.00;92413.44;2106536;28;20028;-87
2021/05/22 01:09:40;;;;;;;5.43;1.40;;;;;;;4.87;100.00;92405.56;2106761;28;20028;-86
2021/05/22 01:10:43;;;;;;;4.95;1.45;;;;;;;4.85;100.00;92415.81;2115173;28;20035;-86
2021/05/22 01:11:54;;;;;;;2.45;1.30;;;;;;;4.91;100.00;92406.28;2106433;28;20111;-87
2021/05/22 01:12:55;;;;;;;1.77;1.20;;;;;;;4.89;100.00;92413.88;2092390;28;20029;-87
2021/05/22 01:14:02;;;;;;;4.15;1.10;;;;;;;4.98;100.00;92422.09;2098103;28;20070;-86
2021/05/22 01:15:08;;;;;;;3.75;1.33;;;;;;;4.91;100.00;92405.53;2098472;28;20036;-87
2021/05/22 01:16:11;;;;;;;3.13;1.40;;;;;;;4.93;100.00;92414.59;2098191;28;20412;-86
2021/05/22 01:17:16;;;;;;;5.15;1.30;;;;;;;4.95;100.00;92412.28;2096195;28;20492;-87
2021/05/22 01:18:16;;;;;;;3.80;1.42;;;;;;;4.77;100.00;92414.38;2094640;28;20029;-86
2021/05/22 01:19:46;;;;;;;4.32;1.48;;;;;;;4.80;100.00;92405.66;2088822;28;20040;-86
2021/05/22 01:20:59;;;;;;;6.82;1.30;;;;;;;4.84;100.00;92406.38;2071590;28;20110;-86
2021/05/22 01:22:00;;;;;;;6.03;1.42;;;;;;;4.91;100.00;92400.97;2106407;28;20049;-87
2021/05/22 01:23:07;;;;;;;6.85;1.27;;;;;;;4.87;100.00;92397.63;2097295;28;20078;-86
2021/05/22 01:24:11;;;;;;;3.72;1.50;;;;;;;4.90;100.00;92406.69;2090563;28;20520;-87
2021/05/22 01:25:32;;;;;;;5.72;1.55;;;;;;;4.98;100.00;92408.84;2113921;28;20027;-88
2021/05/22 01:26:33;;;;;;;4.95;1.27;;;;;;;4.94;100.00;92404.75;2105211;28;20735;-87
2021/05/22 01:27:35;;;;;;;6.65;1.60;;;;;;;4.97;100.00;92409.25;2106524;28;20027;-87
2021/05/22 01:28:37;;;;;;;6.60;1.40;;;;;;;5.01;100.00;92404.66;2098289;28;20016;-87
2021/05/22 01:29:38;;;;;;;3.92;1.30;;;;;;;5.01;100.00;92408.06;2106624;28;20020;-86
2021/05/22 01:30:39;;;;;;;4.15;1.30;;;;;;;4.99;100.00;92410.34;2106440;28;20024;-87
2021/05/22 01:31:40;;;;;;;5.30;1.45;;;;;;;5.01;100.00;92399.38;2098425;28;20530;-87
2021/05/22 01:32:41;;;;;;;7.00;1.63;;;;;;;4.97;100.00;92409.25;2098031;28;20024;-87
2021/05/22 01:33:41;;;;;;;5.50;1.25;;;;;;;5.08;100.00;92415.16;2104692;28;20035;-87
2021/05/22 01:34:42;;;;;;;4.10;1.42;;;;;;;5.07;100.00;92418.97;2095561;28;20535;-88
2021/05/22 01:35:43;;;;;;;5.38;1.33;;;;;;;5.13;100.00;92413.97;2098007;28;20043;-86
2021/05/22 01:36:44;;;;;;;4.13;1.25;;;;;;;5.17;100.00;92404.06;2093583;28;20028;-87
2021/05/22 01:37:45;;;;;;;5.47;1.50;;;;;;;5.12;100.00;92399.22;2097933;28;20024;-85
2021/05/22 01:38:46;;;;;;;5.35;1.40;;;;;;;5.10;100.00;92407.56;2089621;28;20032;-87
2021/05/22 01:39:46;;;;;;;6.75;1.50;;;;;;;4.98;100.00;92402.81;2086848;28;20025;-85
2021/05/22 01:40:49;;;;;;;3.85;1.20;;;;;;;5.02;100.00;92411.47;2106350;28;20051;-87
2021/05/22 01:41:49;;;;;;;4.53;1.20;;;;;;;4.99;100.00;92401.66;2114732;28;20019;-87
2021/05/22 01:42:50;;;;;;;3.33;1.38;;;;;;;4.98;100.00;92402.81;2098007;28;20509;-87
2021/05/22 01:43:55;;;;;;;3.25;1.50;;;;;;;5.00;100.00;92409.22;2097828;28;20158;-87
2021/05/22 01:44:57;;;;;;;5.82;1.40;;;;;;;4.92;100.00;92413.09;2106891;28;20016;-88
2021/05/22 01:45:58;;;;;;;4.72;1.40;;;;;;;5.02;100.00;92404.25;2106241;28;20023;-87
2021/05/22 01:47:00;;;;;;;3.33;1.23;;;;;;;5.09;100.00;92403.41;2113968;28;20020;-87
2021/05/22 01:48:03;;;;;;;5.53;1.33;;;;;;;5.26;100.00;92415.69;2106210;28;20023;-87
2021/05/22 01:49:05;;;;;;;2.85;1.65;;;;;;;5.21;96.89;92413.47;2090118;28;20040;-87
2021/05/22 01:50:06;;;;;;;8.23;1.60;;;;;;;5.18;99.53;92409.00;2098042;28;20535;-86
2021/05/22 01:51:11;;;;;;;3.67;1.20;;;;;;;5.25;99.85;92408.13;2106527;28;20495;-87
2021/05/22 01:52:13;;;;;;;8.70;1.60;;;;;;;5.26;100.00;92412.28;2090608;28;20060;-88
2021/05/22 01:53:16;;;;;;;5.28;1.30;;;;;;;5.23;100.00;92410.44;2097938;28;20017;-85
2021/05/22 01:54:17;;;;;;;3.22;1.30;;;;;;;5.15;100.00;92414.34;2104529;28;20027;-87
2021/05/22 01:55:20;;;;;;;3.83;1.27;;;;;;;5.05;100.00;92424.66;2113882;28;20023;-86
2021/05/22 01:56:22;;;;;;;6.03;1.45;;;;;;;5.07;100.00;92415.56;2105789;28;20024;-86
2021/05/22 01:57:23;;;;;;;6.75;1.60;;;;;;;5.15;100.00;92411.69;2089687;28;20032;-87
2021/05/22 01:58:24;;;;;;;4.80;1.50;;;;;;;5.09;100.00;92419.31;2106241;28;20055;-86
2021/05/22 01:59:26;;;;;;;5.50;1.58;;;;;;;5.08;100.00;92406.47;2106112;28;20381;-86
2021/05/22 02:00:27;;;;;;;6.78;1.77;;;;;;;4.92;100.00;92413.09;2098151;28;20028;-87
2021/05/22 02:01:28;;;;;;;2.95;1.40;;;;;;;4.96;100.00;92411.16;2097789;28;20021;-86
2021/05/22 02:02:29;;;;;;;6.82;1.70;;;;;;;4.99;100.00;92417.53;2097886;28;20024;-85
2021/05/22 02:05:20;;;;;;;6.85;1.35;;;;;;;5.12;100.00;92415.13;2139965;27;20173;-87
2021/05/22 02:06:24;;;;;;;11.07;2.10;;;;;;;5.09;100.00;92407.97;2122121;28;20032;-88
2021/05/22 02:07:26;;;;;;;4.70;1.50;;;;;;;5.04;100.00;92406.50;2106170;28;20021;-87
2021/05/22 02:08:28;;;;;;;8.50;1.90;;;;;;;4.99;100.00;92401.66;2113745;27;20118;-88
2021/05/22 02:09:31;;;;;;;7.30;1.88;;;;;;;5.03;100.00;92400.47;2113455;28;20020;-87
2021/05/22 02:10:32;;;;;;;9.23;1.60;;;;;;;5.04;100.00;92403.84;2105578;28;20028;-87
2021/05/22 02:11:36;;;;;;;2.63;1.40;;;;;;;5.04;100.00;92406.50;2105132;28;20593;-86
2021/05/22 02:12:38;;;;;;;9.50;1.80;;;;;;;5.01;100.00;92396.72;2106221;28;20247;-87
2021/05/22 02:13:41;;;;;;;6.93;2.03;;;;;;;5.00;100.00;92406.56;2121912;27;20434;-88
2021/05/22 02:14:43;;;;;;;7.90;2.00;;;;;;;5.19;100.00;92405.19;2121841;28;20093;-88
2021/05/22 02:15:54;;;;;;;5.60;1.70;;;;;;;5.21;100.00;92407.44;2113658;28;20016;-87
2021/05/22 02:16:56;;;;;;;7.88;1.67;;;;;;;5.17;100.00;92406.72;2114469;28;20023;-87
2021/05/22 02:17:57;;;;;;;5.95;1.80;;;;;;;5.14;100.00;92402.25;2113777;27;20034;-87
2021/05/22 02:18:59;;;;;;;5.68;1.63;;;;;;;5.24;100.00;92410.03;2113284;28;20165;-86
2021/05/22 02:20:01;;;;;;;4.15;1.60;;;;;;;5.24;100.00;92415.34;2106188;28;20016;-87
2021/05/22 02:21:04;;;;;;;10.32;1.90;;;;;;;5.26;100.00;92414.94;2113356;28;20047;-86
2021/05/22 02:22:10;;;;;;;5.78;1.63;;;;;;;5.23;100.00;92405.16;2105637;28;20385;-85
2021/05/22 02:23:14;;;;;;;12.82;2.25;;;;;;;5.26;100.00;92413.03;2122708;27;20373;-86
2021/05/22 02:24:18;;;;;;;5.53;1.88;;;;;;;5.16;100.00;92410.53;2113715;28;20415;-86
2021/05/22 02:25:19;;;;;;;8.90;2.47;;;;;;;5.20;100.00;92408.59;2105832;28;20485;-86
2021/05/22 02:26:25;;;;;;;9.15;2.35;;;;;;;5.26;100.00;92404.31;2121850;27;20019;-87
2021/05/22 02:27:26;;;;;;;10.60;2.40;;;;;;;5.29;100.00;92406.19;2121765;28;20046;-87
2021/05/22 02:28:32;;;;;;;9.30;2.25;;;;;;;5.38;100.00;92401.16;2113379;28;20114;-87
2021/05/22 02:29:36;;;;;;;18.48;2.75;;;;;;;5.19;100.00;92418.44;2114827;27;20024;-87
2021/05/22 02:30:41;;;;;;;7.93;2.40;;;;;;;5.27;100.00;92411.91;2113856;28;20635;-86
2021/05/22 02:31:44;;;;;;;10.00;2.53;;;;;;;5.39;100.00;92407.19;2114543;27;20081;-88
2021/05/22 02:32:49;;;;;;;8.52;1.98;;;;;;;5.28;100.00;92402.78;2113478;28;20035;-86
2021/05/22 02:33:51;;;;;;;8.55;2.05;;;;;;;5.30;100.00;92403.13;2106871;28;20017;-86
2021/05/22 02:34:54;;;;;;;10.52;2.17;;;;;;;5.34;100.00;92408.38;2105264;28;20058;-88
2021/05/22 02:35:55;;;;;;;10.20;2.28;;;;;;;5.39;99.93;92399.25;2097119;28;20032;-86
2021/05/22 02:36:59;;;;;;;13.90;2.33;;;;;;;5.28;100.00;92407.34;2104821;28;20473;-87
2021/05/22 02:38:01;;;;;;;9.88;2.00;;;;;;;5.32;100.00;92408.06;2109674;28;20031;-87
2021/05/22 02:39:03;;;;;;;10.50;2.45;;;;;;;5.36;99.89;92402.72;2110379;27;20029;-87
2021/05/22 02:40:19;;;;;;;12.77;2.35;;;;;;;5.22;100.00;92393.03;2121623;28;20372;-87
2021/05/22 02:41:21;;;;;;;11.15;1.98;;;;;;;5.30;100.00;92408.44;2117296;27;20531;-86
2021/05/22 02:42:23;;;;;;;11.63;2.30;;;;;;;5.37;99.72;92393.59;2113408;28;20452;-86
2021/05/22 02:43:27;;;;;;;8.40;1.85;;;;;;;5.34;99.94;92397.78;2117178;28;20102;-86
2021/05/22 02:44:29;;;;;;;7.00;2.30;;;;;;;5.18;100.00;92401.03;2113412;28;20024;-85
2021/05/22 02:45:32;;;;;;;13.43;2.53;;;;;;;5.29;100.00;92398.25;2113548;28;20028;-87
2021/05/22 02:46:39;;;;;;;11.27;2.17;;;;;;;5.17;100.00;92396.13;2113885;27;20031;-86
2021/05/22 02:47:44;;;;;;;12.57;2.28;;;;;;;5.20;100.00;92398.72;2122464;27;20482;-87
2021/05/22 02:48:47;;;;;;;11.02;2.25;;;;;;;5.26;98.73;92397.13;2130174;27;20114;-88
2021/05/22 02:49:49;;;;;;;6.20;2.10;;;;;;;5.39;98.49;92396.59;2121757;28;20420;-85
2021/05/22 02:50:50;;;;;;;11.82;1.90;;;;;;;5.27;98.66;92393.34;2121841;27;20015;-87
2021/05/22 02:51:53;;;;;;;10.68;2.00;;;;;;;5.26;97.62;92399.78;2130275;27;20559;-86
2021/05/22 02:52:55;;;;;;;9.18;2.40;;;;;;;5.29;98.54;92395.59;2121588;28;20019;-85
2021/05/22 02:53:59;;;;;;;14.77;2.05;;;;;;;5.26;100.00;92394.47;2105022;28;20024;-88
2021/05/22 02:55:02;;;;;;;8.35;1.77;;;;;;;5.38;95.72;92389.78;2122254;27;20468;-86
2021/05/22 02:56:05;;;;;;;7.65;2.50;;;;;;;5.30;98.52;92387.22;2129765;27;20019;-86
2021/05/22 02:57:10;;;;;;;11.40;2.78;;;;;;;5.32;97.74;92388.75;2121861;27;20016;-87
2021/05/22 02:58:16;;;;;;;8.60;2.30;;;;;;;5.28;99.28;92392.19;2122211;27;20080;-87
2021/05/22 02:59:18;;;;;;;7.18;2.10;;;;;;;5.34;96.42;92395.13;2105487;28;20118;-87
2021/05/22 03:00:20;;;;;;;6.80;1.98;;;;;;;5.50;94.00;92392.66;2104913;28;20028;-86
2021/05/22 03:01:22;;;;;;;12.30;2.00;;;;;;;5.51;92.90;92388.84;2112773;28;20016;-86
2021/05/22 03:02:23;;;;;;;10.95;3.00;;;;;;;5.43;95.52;92387.44;2102140;28;20063;-87
2021/05/22 03:03:24;;;;;;;12.13;2.00;;;;;;;5.36;97.15;92384.91;2112988;27;20473;-86
2021/05/22 03:04:25;;;;;;;9.30;2.30;;;;;;;5.39;96.25;92404.53;2120606;28;20023;-88
2021/05/22 03:05:26;;;;;;;10.27;2.55;;;;;;;5.25;96.56;92394.88;2112510;28;20031;-87
2021/05/22 03:06:27;;;;;;;6.25;1.92;;;;;;;5.32;96.76;92402.00;2112606;28;20126;-87
2021/05/22 03:07:28;;;;;;;13.73;2.53;;;;;;;5.29;97.06;92390.28;2119804;28;20027;-87
2021/05/22 03:08:29;;;;;;;4.70;2.03;;;;;;;5.39;96.43;92392.03;2123730;28;20019;-85
2021/05/22 03:09:30;;;;;;;8.95;1.77;;;;;;;5.46;95.13;92399.16;2124014;27;20023;-86
2021/05/22 03:10:31;;;;;;;19.98;3.00;;;;;;;5.39;95.62;92386.00;2115115;28;20031;-85
2021/05/22 03:11:33;;;;;;;8.98;2.00;;;;;;;5.37;95.84;92396.25;2106422;28;20024;-87
2021/05/22 03:12:36;;;;;;;13.68;2.28;;;;;;;5.26;97.62;92402.44;2107308;28;20032;-87
2021/05/22 03:13:37;;;;;;;12.02;2.20;;;;;;;5.17;98.31;92399.53;2105373;28;20024;-87
2021/05/22 03:14:37;;;;;;;8.80;2.20;;;;;;;5.10;98.18;92399.63;2105339;28;20020;-87
2021/05/22 03:15:38;;;;;;;13.75;2.15;;;;;;;5.24;97.12;92391.50;2104540;28;20016;-87
2021/05/22 03:16:39;;;;;;;16.38;2.38;;;;;;;5.38;96.37;92395.84;2107738;28;20050;-87
2021/05/22 03:17:40;;;;;;;8.43;2.15;;;;;;;5.39;95.02;92386.00;2107258;28;20028;-88
2021/05/22 03:18:40;;;;;;;8.70;2.28;;;;;;;5.34;96.82;92392.50;2107137;28;20030;-87
2021/05/22 03:19:41;;;;;;;10.43;2.58;;;;;;;5.34;95.68;92394.38;2098076;28;20488;-86
2021/05/22 03:20:42;;;;;;;17.50;2.25;;;;;;;5.33;94.61;92404.25;2098983;28;20465;-86
2021/05/22 03:21:42;;;;;;;13.00;2.20;;;;;;;5.42;92.58;92401.09;2107414;28;20016;-87
2021/05/22 03:22:43;;;;;;;8.80;2.22;;;;;;;5.41;95.85;92399.59;2107410;28;20032;-87
2021/05/22 03:23:44;;;;;;;13.93;2.42;;;;;;;5.24;97.08;92401.34;2107092;28;20432;-87
2021/05/22 03:24:44;;;;;;;16.38;2.30;;;;;;;5.17;98.10;92399.53;2098852;28;20016;-86
2021/05/22 03:25:45;;;;;;;10.50;2.22;;;;;;;5.15;97.75;92393.88;2098757;28;20082;-85
2021/05/22 03:26:46;;;;;;;10.23;2.40;;;;;;;5.15;97.84;92401.84;2090657;28;20083;-87
2021/05/22 03:27:47;;;;;;;9.68;2.42;;;;;;;5.20;97.79;92411.97;2090556;28;20036;-88
2021/05/22 03:28:47;;;;;;;14.05;2.33;;;;;;;5.15;99.29;92401.09;2098774;28;20031;-86
2021/05/22 03:29:48;;;;;;;6.13;2.20;;;;;;;5.17;97.96;92401.44;2098917;28;20381;-88
2021/05/22 03:30:49;;;;;;;13.60;2.55;;;;;;;5.24;95.22;92404.00;2098780;28;20370;-87
2021/05/22 03:31:50;;;;;;;17.73;2.22;;;;;;;5.22;96.67;92395.69;2099135;28;20021;-87
2021/05/22 03:32:51;;;;;;;12.27;2.92;;;;;;;5.14;98.08;92399.59;2107252;28;20016;-86
2021/05/22 03:33:52;;;;;;;13.43;2.15;;;;;;;5.18;97.48;92400.28;2115632;28;20015;-86
2021/05/22 03:34:52;;;;;;;7.57;1.92;;;;;;;5.34;92.74;92399.69;2115748;28;20062;-87
2021/05/22 03:35:53;;;;;;;12.02;2.00;;;;;;;5.21;95.07;92405.53;2115735;28;20051;-88
2021/05/22 03:36:54;;;;;;;11.10;2.15;;;;;;;5.30;93.14;92405.03;2115608;28;20066;-85
2021/05/22 03:37:54;;;;;;;10.73;1.95;;;;;;;5.39;94.07;92399.25;2107276;28;20023;-86
2021/05/22 03:38:55;;;;;;;9.70;2.03;;;;;;;5.28;94.48;92402.03;2106744;28;20088;-88
2021/05/22 03:39:56;;;;;;;8.40;2.05;;;;;;;5.26;95.40;92399.78;2098899;28;20044;-86
2021/05/22 03:40:56;;;;;;;7.45;1.77;;;;;;;5.18;94.25;92395.75;2098796;28;20464;-85
2021/05/22 03:41:57;;;;;;;5.60;1.70;;;;;;;5.40;91.44;92404.16;2099000;28;20024;-86
2021/05/22 03:42:58;;;;;;;8.77;2.10;;;;;;;5.28;93.99;92407.34;2098838;28;20103;-86
2021/05/22 03:43:58;;;;;;;8.88;1.80;;;;;;;5.12;96.22;92405.28;2092681;28;20036;-86
2021/05/22 03:44:59;;;;;;;12.35;2.40;;;;;;;5.18;93.84;92397.63;2098742;28;20017;-86
2021/05/22 03:46:00;;;;;;;12.52;2.00;;;;;;;5.43;89.20;92403.34;2098808;28;20032;-87
2021/05/22 03:47:01;;;;;;;9.90;1.95;;;;;;;5.36;93.10;92400.81;2107105;28;20032;-85
2021/05/22 03:48:01;;;;;;;6.68;1.90;;;;;;;5.20;93.29;92406.69;2098496;28;20032;-86
2021/05/22 03:49:02;;;;;;;9.73;2.03;;;;;;;5.11;95.47;92410.97;2090276;28;20024;-87
2021/05/22 03:50:05;;;;;;;15.05;2.10;;;;;;;5.16;94.63;92405.22;2090733;28;20168;-87
2021/05/22 03:51:06;;;;;;;10.65;2.15;;;;;;;5.10;96.06;92409.47;2098977;28;20027;-86
2021/05/22 03:52:06;;;;;;;12.55;2.33;;;;;;;5.09;96.11;92407.97;2098632;28;20292;-87
2021/05/22 03:53:08;;;;;;;14.90;2.40;;;;;;;5.05;94.00;92408.78;2098613;28;20528;-86
2021/05/22 03:54:09;;;;;;;11.48;2.10;;;;;;;5.14;93.14;92405.63;2090413;28;20381;-85
2021/05/22 03:55:11;;;;;;;10.13;2.35;;;;;;;5.10;94.85;92407.56;2090460;28;20045;-87
2021/05/22 03:56:11;;;;;;;8.25;1.90;;;;;;;5.12;96.02;92404.53;2104102;28;20416;-87
2021/05/22 03:57:12;;;;;;;6.82;2.00;;;;;;;5.12;95.02;92407.16;2107008;28;20028;-86
2021/05/22 03:58:16;;;;;;;12.75;2.08;;;;;;;5.03;95.45;92405.75;2107169;28;20113;-86
2021/05/22 03:59:16;;;;;;;11.73;2.33;;;;;;;5.02;95.40;92411.47;2098729;28;20028;-85
2021/05/22 04:00:18;;;;;;;13.07;2.10;;;;;;;4.97;96.48;92415.31;2090417;28;20380;-88
2021/05/22 04:01:19;;;;;;;15.57;1.95;;;;;;;4.95;95.59;92403.59;2107036;28;20599;-87
2021/05/22 04:02:19;;;;;;;10.68;1.85;;;;;;;5.07;93.45;92411.00;2108771;28;20024;-87
2021/05/22 04:03:21;;;;;;;8.95;1.83;;;;;;;5.07;94.80;92418.97;2107079;28;20016;-85
2021/05/22 04:04:22;;;;;;;10.43;2.08;;;;;;;5.07;95.00;92397.78;2098241;28;20024;-86
2021/05/22 04:05:22;;;;;;;11.68;1.98;;;;;;;5.08;94.58;92411.75;2090017;28;20413;-88
2021/05/22 04:06:23;;;;;;;8.38;1.80;;;;;;;5.14;93.92;92404.88;2098717;28;20028;-86
2021/05/22 04:07:24;;;;;;;9.65;1.90;;;;;;;5.14;94.06;92405.63;2115499;28;20023;-86
2021/05/22 04:08:24;;;;;;;7.47;2.05;;;;;;;5.11;95.18;92405.69;2109431;28;20054;-88
2021/05/22 04:09:25;;;;;;;14.00;2.42;;;;;;;5.18;94.83;92405.56;2106916;28;20030;-85
2021/05/22 04:10:26;;;;;;;8.15;1.75;;;;;;;5.18;95.19;92403.69;2098459;28;20029;-87
2021/05/22 04:11:26;;;;;;;8.85;2.00;;;;;;;5.15;93.38;92409.78;2098395;28;20047;-88
2021/05/22 04:12:27;;;;;;;12.30;2.17;;;;;;;5.36;90.10;92408.00;2098570;28;20432;-86
2021/05/22 04:13:28;;;;;;;8.38;1.95;;;;;;;5.40;90.35;92408.69;2101251;28;20051;-87
2021/05/22 04:14:28;;;;;;;11.98;2.10;;;;;;;5.42;89.78;92414.34;2098600;28;20023;-87
2021/05/22 04:15:29;;;;;;;12.60;1.90;;;;;;;5.38;92.14;92416.28;2106690;28;20051;-86
2021/05/22 04:16:30;;;;;;;9.40;2.00;;;;;;;5.28;92.28;92407.34;2106867;28;20458;-88
2021/05/22 04:17:31;;;;;;;6.22;1.77;;;;;;;5.39;92.11;92426.50;2090189;28;20079;-86
2021/05/22 04:18:32;;;;;;;12.00;1.67;;;;;;;5.43;91.10;92416.59;2098528;28;20102;-87
2021/05/22 04:19:32;;;;;;;13.43;2.97;;;;;;;5.35;92.82;92417.09;2106781;28;20048;-87
2021/05/22 04:20:33;;;;;;;10.52;2.45;;;;;;;5.37;90.74;92417.44;2106742;28;20051;-87
2021/05/22 04:21:34;;;;;;;12.15;1.80;;;;;;;5.46;91.32;92418.44;2106210;28;20032;-88
2021/05/22 04:22:34;;;;;;;6.82;1.92;;;;;;;5.38;92.50;92422.34;2094576;28;20031;-88
2021/05/22 04:23:35;;;;;;;7.75;2.33;;;;;;;5.46;92.38;92415.06;2098263;28;20036;-87
2021/05/22 04:24:36;;;;;;;9.63;2.25;;;;;;;5.39;93.16;92415.88;2106666;28;20492;-88
2021/05/22 04:25:36;;;;;;;10.27;2.00;;;;;;;5.46;91.31;92420.34;2098392;28;20031;-87
2021/05/22 04:26:37;;;;;;;13.20;2.20;;;;;;;5.39;90.13;92409.84;2100309;28;20107;-88
2021/05/22 04:27:38;;;;;;;8.82;2.42;;;;;;;5.32;92.17;92415.25;2106473;28;20035;-87
2021/05/22 04:28:39;;;;;;;15.18;3.03;;;;;;;5.32;93.99;92407.31;2097435;28;20027;-88
2021/05/22 04:29:39;;;;;;;15.63;2.35;;;;;;;5.20;94.37;92406.69;2082047;28;20056;-87
2021/05/22 04:30:40;;;;;;;16.98;2.47;;;;;;;5.37;90.79;92415.56;2098475;28;20033;-87
2021/05/22 04:31:41;;;;;;;9.32;2.17;;;;;;;5.49;89.91;92412.34;2098536;28;20048;-85
2021/05/22 04:32:41;;;;;;;19.08;2.35;;;;;;;5.39;92.43;92413.22;2093369;28;20044;-86
2021/05/22 04:33:43;;;;;;;12.52;3.00;;;;;;;5.37;92.62;92404.94;2097672;28;20048;-87
2021/05/22 04:34:43;;;;;;;17.80;1.95;;;;;;;5.33;91.12;92404.25;2104601;28;20055;-86
2021/05/22 04:35:44;;;;;;;9.88;1.90;;;;;;;5.29;91.81;92403.53;2098298;28;20021;-87
2021/05/22 04:36:45;;;;;;;10.15;2.00;;;;;;;5.36;91.49;92398.16;2106583;28;20024;-87
2021/05/22 04:37:46;;;;;;;15.48;2.33;;;;;;;5.30;92.24;92405.78;2098618;28;20021;-88
2021/05/22 04:38:47;;;;;;;9.07;1.70;;;;;;;5.28;91.73;92397.50;2098137;28;20035;-86
2021/05/22 04:39:47;;;;;;;12.90;2.10;;;;;;;5.35;90.10;92396.63;2106499;28;20026;-85
2021/05/22 04:40:48;;;;;;;15.07;2.20;;;;;;;5.36;91.16;92402.72;2108709;28;20115;-86
2021/05/22 04:41:49;;;;;;;14.32;1.90;;;;;;;5.26;92.26;92401.69;2106358;28;20036;-86
2021/05/22 04:42:50;;;;;;;9.38;2.22;;;;;;;5.25;92.47;92400.19;2099397;28;20385;-87
2021/05/22 04:43:50;;;;;;;11.73;2.33;;;;;;;5.14;93.14;92404.88;2098152;28;20055;-86
2021/05/22 04:44:51;;;;;;;13.30;2.33;;;;;;;5.14;92.71;92404.88;2098100;28;20075;-85
2021/05/22 04:45:52;;;;;;;11.60;2.00;;;;;;;5.33;91.75;92400.84;2098088;28;20150;-88
2021/05/22 04:46:52;;;;;;;12.05;2.20;;;;;;;5.44;89.19;92398.78;2098221;28;20028;-86
2021/05/22 04:47:53;;;;;;;7.50;1.65;;;;;;;5.53;91.53;92397.16;2098320;28;20029;-87
2021/05/22 04:48:55;;;;;;;11.93;2.08;;;;;;;5.51;91.63;92390.75;2098121;28;20470;-87
2021/05/22 04:49:56;;;;;;;9.65;1.90;;;;;;;5.44;92.21;92385.53;2081768;28;20119;-87
2021/05/22 04:50:57;;;;;;;12.63;2.00;;;;;;;5.53;90.24;92399.03;2087757;28;20119;-86
2021/05/22 04:51:58;;;;;;;9.57;1.67;;;;;;;5.62;89.21;92394.00;2089644;28;20029;-86
2021/05/22 04:53:00;;;;;;;10.57;2.30;;;;;;;5.55;90.09;92386.88;2098161;28;20055;-86
2021/05/22 04:54:05;;;;;;;10.43;1.83;;;;;;;5.71;89.94;92390.84;2103141;28;20073;-86